sensor_id;sensor_type;location;lat;lon;timestamp;P1;durP1;ratioP1;P2;durP2;ratioP2
32790;SDS011;19143;59.322;14.502;2023-08-01T00:01:43;2.23;;;2.00;;
32790;SDS011;19143;59.322;14.502;2023-08-01T00:04:10;2.00;;;1.90;;
32790;SDS011;19143;59.322;14.502;2023-08-01T00:06:38;1.70;;;1.60;;
32790;SDS011;19143;59.322;14.502;2023-08-01T00:09:04;2.30;;;1.50;;
32790;SDS011;19143;59.322;14.502;2023-08-01T00:11:31;1.60;;;1.53;;
32790;SDS011;19143;59.322;14.502;2023-08-01T00:13:58;4.47;;;1.60;;
32790;SDS011;19143;59.322;14.502;2023-08-01T00:16:24;1.93;;;1.83;;
32790;SDS011;19143;59.322;14.502;2023-08-01T00:18:51;2.90;;;1.60;;
32790;SDS011;19143;59.322;14.502;2023-08-01T00:21:17;4.77;;;1.73;;
32790;SDS011;19143;59.322;14.502;2023-08-01T00:23:46;1.80;;;1.70;;
32790;SDS011;19143;59.322;14.502;2023-08-01T00:26:12;2.47;;;1.63;;
32790;SDS011;19143;59.322;14.502;2023-08-01T00:28:39;1.97;;;1.87;;
32790;SDS011;19143;59.322;14.502;2023-08-01T00:31:07;1.73;;;1.73;;
32790;SDS011;19143;59.322;14.502;2023-08-01T00:33:35;2.23;;;2.03;;
32790;SDS011;19143;59.322;14.502;2023-08-01T00:36:04;2.00;;;1.90;;
32790;SDS011;19143;59.322;14.502;2023-08-01T00:38:34;2.00;;;1.90;;
32790;SDS011;19143;59.322;14.502;2023-08-01T00:41:02;2.10;;;2.07;;
32790;SDS011;19143;59.322;14.502;2023-08-01T00:43:29;4.73;;;1.97;;
32790;SDS011;19143;59.322;14.502;2023-08-01T00:46:00;7.00;;;2.10;;
32790;SDS011;19143;59.322;14.502;2023-08-01T00:48:27;2.70;;;2.50;;
32790;SDS011;19143;59.322;14.502;2023-08-01T00:50:54;2.13;;;2.00;;
32790;SDS011;19143;59.322;14.502;2023-08-01T00:53:21;2.63;;;1.90;;
32790;SDS011;19143;59.322;14.502;2023-08-01T00:55:51;4.40;;;1.73;;
32790;SDS011;19143;59.322;14.502;2023-08-01T00:58:32;2.30;;;1.80;;
32790;SDS011;19143;59.322;14.502;2023-08-01T01:00:58;1.70;;;1.60;;
32790;SDS011;19143;59.322;14.502;2023-08-01T01:03:25;1.50;;;1.50;;
32790;SDS011;19143;59.322;14.502;2023-08-01T01:05:53;8.80;;;1.60;;
32790;SDS011;19143;59.322;14.502;2023-08-01T01:08:20;1.70;;;1.40;;
32790;SDS011;19143;59.322;14.502;2023-08-01T01:10:47;1.90;;;1.80;;
32790;SDS011;19143;59.322;14.502;2023-08-01T01:13:13;1.57;;;1.53;;
32790;SDS011;19143;59.322;14.502;2023-08-01T01:15:41;1.80;;;1.70;;
32790;SDS011;19143;59.322;14.502;2023-08-01T01:18:08;1.63;;;1.63;;
32790;SDS011;19143;59.322;14.502;2023-08-01T01:20:36;2.90;;;1.50;;
32790;SDS011;19143;59.322;14.502;2023-08-01T01:23:03;2.40;;;1.50;;
32790;SDS011;19143;59.322;14.502;2023-08-01T01:25:30;1.57;;;1.57;;
32790;SDS011;19143;59.322;14.502;2023-08-01T01:27:59;1.53;;;1.47;;
32790;SDS011;19143;59.322;14.502;2023-08-01T01:30:25;1.63;;;1.63;;
32790;SDS011;19143;59.322;14.502;2023-08-01T01:32:52;2.43;;;1.43;;
32790;SDS011;19143;59.322;14.502;2023-08-01T01:35:19;9.73;;;1.80;;
32790;SDS011;19143;59.322;14.502;2023-08-01T01:37:47;7.30;;;1.63;;
32790;SDS011;19143;59.322;14.502;2023-08-01T01:40:14;1.63;;;1.53;;
32790;SDS011;19143;59.322;14.502;2023-08-01T01:42:41;5.47;;;1.80;;
32790;SDS011;19143;59.322;14.502;2023-08-01T01:45:07;2.93;;;1.70;;
32790;SDS011;19143;59.322;14.502;2023-08-01T01:47:34;1.40;;;1.40;;
32790;SDS011;19143;59.322;14.502;2023-08-01T01:50:01;1.60;;;1.60;;
32790;SDS011;19143;59.322;14.502;2023-08-01T01:52:28;1.93;;;1.67;;
32790;SDS011;19143;59.322;14.502;2023-08-01T01:54:56;4.00;;;1.60;;
32790;SDS011;19143;59.322;14.502;2023-08-01T01:57:23;2.00;;;1.93;;
32790;SDS011;19143;59.322;14.502;2023-08-01T01:59:50;1.40;;;1.40;;
32790;SDS011;19143;59.322;14.502;2023-08-01T02:02:16;3.00;;;1.50;;
32790;SDS011;19143;59.322;14.502;2023-08-01T02:04:45;1.90;;;1.80;;
32790;SDS011;19143;59.322;14.502;2023-08-01T02:07:12;2.07;;;1.97;;
32790;SDS011;19143;59.322;14.502;2023-08-01T02:09:39;3.17;;;2.20;;
32790;SDS011;19143;59.322;14.502;2023-08-01T02:12:08;3.13;;;1.93;;
32790;SDS011;19143;59.322;14.502;2023-08-01T02:14:35;4.33;;;2.10;;
32790;SDS011;19143;59.322;14.502;2023-08-01T02:17:01;1.73;;;1.73;;
32790;SDS011;19143;59.322;14.502;2023-08-01T02:19:28;2.07;;;1.97;;
32790;SDS011;19143;59.322;14.502;2023-08-01T02:21:55;6.07;;;2.73;;
32790;SDS011;19143;59.322;14.502;2023-08-01T02:24:21;2.27;;;1.83;;
32790;SDS011;19143;59.322;14.502;2023-08-01T02:26:48;2.53;;;1.53;;
32790;SDS011;19143;59.322;14.502;2023-08-01T02:29:17;3.27;;;1.93;;
32790;SDS011;19143;59.322;14.502;2023-08-01T02:31:43;2.00;;;1.90;;
32790;SDS011;19143;59.322;14.502;2023-08-01T02:34:10;1.97;;;1.60;;
32790;SDS011;19143;59.322;14.502;2023-08-01T02:36:37;2.43;;;1.83;;
32790;SDS011;19143;59.322;14.502;2023-08-01T02:39:05;3.13;;;2.00;;
32790;SDS011;19143;59.322;14.502;2023-08-01T02:41:32;2.40;;;1.90;;
32790;SDS011;19143;59.322;14.502;2023-08-01T02:43:58;2.20;;;2.10;;
32790;SDS011;19143;59.322;14.502;2023-08-01T02:46:26;3.80;;;2.00;;
32790;SDS011;19143;59.322;14.502;2023-08-01T02:48:54;2.70;;;1.80;;
32790;SDS011;19143;59.322;14.502;2023-08-01T02:51:21;6.07;;;1.70;;
32790;SDS011;19143;59.322;14.502;2023-08-01T02:53:48;2.13;;;2.00;;
32790;SDS011;19143;59.322;14.502;2023-08-01T02:56:14;1.60;;;1.60;;
32790;SDS011;19143;59.322;14.502;2023-08-01T02:58:41;5.17;;;2.10;;
32790;SDS011;19143;59.322;14.502;2023-08-01T03:01:07;1.70;;;1.70;;
32790;SDS011;19143;59.322;14.502;2023-08-01T03:03:37;1.77;;;1.60;;
32790;SDS011;19143;59.322;14.502;2023-08-01T03:06:03;2.00;;;1.90;;
32790;SDS011;19143;59.322;14.502;2023-08-01T03:08:30;2.70;;;2.33;;
32790;SDS011;19143;59.322;14.502;2023-08-01T03:10:57;2.43;;;2.30;;
32790;SDS011;19143;59.322;14.502;2023-08-01T03:13:23;5.13;;;2.20;;
32790;SDS011;19143;59.322;14.502;2023-08-01T03:15:56;1.90;;;1.80;;
32790;SDS011;19143;59.322;14.502;2023-08-01T03:18:23;2.90;;;2.03;;
32790;SDS011;19143;59.322;14.502;2023-08-01T03:20:51;5.47;;;2.37;;
32790;SDS011;19143;59.322;14.502;2023-08-01T03:23:17;4.53;;;2.00;;
32790;SDS011;19143;59.322;14.502;2023-08-01T03:25:44;2.67;;;1.90;;
32790;SDS011;19143;59.322;14.502;2023-08-01T03:28:11;1.93;;;1.93;;
32790;SDS011;19143;59.322;14.502;2023-08-01T03:30:37;3.90;;;2.20;;
32790;SDS011;19143;59.322;14.502;2023-08-01T03:33:04;4.77;;;2.20;;
32790;SDS011;19143;59.322;14.502;2023-08-01T03:35:31;2.20;;;2.10;;
32790;SDS011;19143;59.322;14.502;2023-08-01T03:37:59;4.03;;;2.30;;
32790;SDS011;19143;59.322;14.502;2023-08-01T03:40:26;2.40;;;2.30;;
32790;SDS011;19143;59.322;14.502;2023-08-01T03:42:52;3.53;;;2.40;;
32790;SDS011;19143;59.322;14.502;2023-08-01T03:45:19;4.40;;;2.13;;
32790;SDS011;19143;59.322;14.502;2023-08-01T03:47:46;4.67;;;1.90;;
32790;SDS011;19143;59.322;14.502;2023-08-01T03:50:12;1.60;;;1.60;;
32790;SDS011;19143;59.322;14.502;2023-08-01T03:52:40;1.60;;;1.60;;
32790;SDS011;19143;59.322;14.502;2023-08-01T03:55:08;4.40;;;1.57;;
32790;SDS011;19143;59.322;14.502;2023-08-01T03:57:35;1.83;;;1.83;;
32790;SDS011;19143;59.322;14.502;2023-08-01T04:00:04;1.30;;;1.30;;
32790;SDS011;19143;59.322;14.502;2023-08-01T04:02:30;1.40;;;1.40;;
32790;SDS011;19143;59.322;14.502;2023-08-01T04:04:57;1.33;;;1.33;;
32790;SDS011;19143;59.322;14.502;2023-08-01T04:07:24;5.07;;;2.67;;
32790;SDS011;19143;59.322;14.502;2023-08-01T04:09:50;1.60;;;1.50;;
32790;SDS011;19143;59.322;14.502;2023-08-01T04:12:20;2.13;;;1.93;;
32790;SDS011;19143;59.322;14.502;2023-08-01T04:14:47;1.80;;;1.70;;
32790;SDS011;19143;59.322;14.502;2023-08-01T04:17:20;1.57;;;1.37;;
32790;SDS011;19143;59.322;14.502;2023-08-01T04:19:47;1.20;;;1.20;;
32790;SDS011;19143;59.322;14.502;2023-08-01T04:22:13;1.60;;;1.60;;
32790;SDS011;19143;59.322;14.502;2023-08-01T04:24:40;4.67;;;1.50;;
32790;SDS011;19143;59.322;14.502;2023-08-01T04:27:06;1.77;;;1.70;;
32790;SDS011;19143;59.322;14.502;2023-08-01T04:29:34;1.90;;;1.80;;
32790;SDS011;19143;59.322;14.502;2023-08-01T04:32:01;4.60;;;1.83;;
32790;SDS011;19143;59.322;14.502;2023-08-01T04:34:27;1.30;;;1.30;;
32790;SDS011;19143;59.322;14.502;2023-08-01T04:36:54;1.90;;;1.80;;
32790;SDS011;19143;59.322;14.502;2023-08-01T04:39:21;2.43;;;1.50;;
32790;SDS011;19143;59.322;14.502;2023-08-01T04:41:47;1.73;;;1.73;;
32790;SDS011;19143;59.322;14.502;2023-08-01T04:44:14;1.70;;;1.60;;
32790;SDS011;19143;59.322;14.502;2023-08-01T04:46:42;1.50;;;1.50;;
32790;SDS011;19143;59.322;14.502;2023-08-01T04:49:09;1.33;;;1.33;;
32790;SDS011;19143;59.322;14.502;2023-08-01T04:51:35;1.80;;;1.57;;
32790;SDS011;19143;59.322;14.502;2023-08-01T04:54:02;1.53;;;1.53;;
32790;SDS011;19143;59.322;14.502;2023-08-01T04:56:29;2.33;;;1.60;;
32790;SDS011;19143;59.322;14.502;2023-08-01T04:58:55;1.60;;;1.60;;
32790;SDS011;19143;59.322;14.502;2023-08-01T05:01:22;1.80;;;1.70;;
32790;SDS011;19143;59.322;14.502;2023-08-01T05:03:50;1.77;;;1.50;;
32790;SDS011;19143;59.322;14.502;2023-08-01T05:06:16;1.90;;;1.60;;
32790;SDS011;19143;59.322;14.502;2023-08-01T05:08:43;6.90;;;1.83;;
32790;SDS011;19143;59.322;14.502;2023-08-01T05:11:10;2.00;;;1.70;;
32790;SDS011;19143;59.322;14.502;2023-08-01T05:13:37;1.30;;;1.30;;
32790;SDS011;19143;59.322;14.502;2023-08-01T05:16:03;1.30;;;1.30;;
32790;SDS011;19143;59.322;14.502;2023-08-01T05:18:30;3.13;;;1.50;;
32790;SDS011;19143;59.322;14.502;2023-08-01T05:20:58;2.10;;;1.40;;
32790;SDS011;19143;59.322;14.502;2023-08-01T05:23:24;2.73;;;1.40;;
32790;SDS011;19143;59.322;14.502;2023-08-01T05:25:51;1.50;;;1.50;;
32790;SDS011;19143;59.322;14.502;2023-08-01T05:28:18;1.40;;;1.40;;
32790;SDS011;19143;59.322;14.502;2023-08-01T05:30:44;2.40;;;1.67;;
32790;SDS011;19143;59.322;14.502;2023-08-01T05:33:11;1.60;;;1.50;;
32790;SDS011;19143;59.322;14.502;2023-08-01T05:35:38;2.20;;;1.40;;
32790;SDS011;19143;59.322;14.502;2023-08-01T05:38:06;1.60;;;1.50;;
32790;SDS011;19143;59.322;14.502;2023-08-01T05:40:32;5.10;;;1.30;;
32790;SDS011;19143;59.322;14.502;2023-08-01T05:42:59;1.60;;;1.50;;
32790;SDS011;19143;59.322;14.502;2023-08-01T05:45:26;1.53;;;1.43;;
32790;SDS011;19143;59.322;14.502;2023-08-01T05:47:53;1.10;;;1.10;;
32790;SDS011;19143;59.322;14.502;2023-08-01T05:50:20;1.63;;;1.50;;
32790;SDS011;19143;59.322;14.502;2023-08-01T05:52:46;2.23;;;1.43;;
32790;SDS011;19143;59.322;14.502;2023-08-01T05:55:14;1.83;;;1.60;;
32790;SDS011;19143;59.322;14.502;2023-08-01T05:57:41;3.70;;;1.50;;
32790;SDS011;19143;59.322;14.502;2023-08-01T06:00:08;1.50;;;1.40;;
32790;SDS011;19143;59.322;14.502;2023-08-01T06:02:35;1.20;;;1.10;;
32790;SDS011;19143;59.322;14.502;2023-08-01T06:05:01;1.40;;;1.40;;
32790;SDS011;19143;59.322;14.502;2023-08-01T06:07:28;1.20;;;1.20;;
32790;SDS011;19143;59.322;14.502;2023-08-01T06:09:55;1.10;;;1.10;;
32790;SDS011;19143;59.322;14.502;2023-08-01T06:12:23;1.20;;;1.20;;
32790;SDS011;19143;59.322;14.502;2023-08-01T06:14:50;2.13;;;1.47;;
32790;SDS011;19143;59.322;14.502;2023-08-01T06:17:17;1.43;;;1.40;;
32790;SDS011;19143;59.322;14.502;2023-08-01T06:19:43;1.92;;;1.20;;
32790;SDS011;19143;59.322;14.502;2023-08-01T06:22:10;1.40;;;1.30;;
32790;SDS011;19143;59.322;14.502;2023-08-01T06:24:36;1.37;;;1.37;;
32790;SDS011;19143;59.322;14.502;2023-08-01T06:27:03;2.53;;;1.20;;
32790;SDS011;19143;59.322;14.502;2023-08-01T06:29:32;1.40;;;1.30;;
32790;SDS011;19143;59.322;14.502;2023-08-01T06:31:58;10.63;;;1.70;;
32790;SDS011;19143;59.322;14.502;2023-08-01T06:34:25;1.23;;;1.20;;
32790;SDS011;19143;59.322;14.502;2023-08-01T06:36:51;1.37;;;1.30;;
32790;SDS011;19143;59.322;14.502;2023-08-01T06:39:18;3.07;;;1.47;;
32790;SDS011;19143;59.322;14.502;2023-08-01T06:41:45;1.20;;;1.20;;
32790;SDS011;19143;59.322;14.502;2023-08-01T06:44:12;3.47;;;1.37;;
32790;SDS011;19143;59.322;14.502;2023-08-01T06:46:40;1.20;;;1.20;;
32790;SDS011;19143;59.322;14.502;2023-08-01T06:49:07;1.00;;;1.00;;
32790;SDS011;19143;59.322;14.502;2023-08-01T06:51:33;1.43;;;1.10;;
32790;SDS011;19143;59.322;14.502;2023-08-01T06:54:00;1.17;;;1.17;;
32790;SDS011;19143;59.322;14.502;2023-08-01T06:56:35;3.40;;;1.20;;
32790;SDS011;19143;59.322;14.502;2023-08-01T06:59:02;1.97;;;1.30;;
32790;SDS011;19143;59.322;14.502;2023-08-01T07:01:29;1.47;;;1.27;;
32790;SDS011;19143;59.322;14.502;2023-08-01T07:03:57;1.30;;;1.27;;
32790;SDS011;19143;59.322;14.502;2023-08-01T07:06:24;2.67;;;1.10;;
32790;SDS011;19143;59.322;14.502;2023-08-01T07:08:50;2.67;;;1.20;;
32790;SDS011;19143;59.322;14.502;2023-08-01T07:11:17;1.20;;;1.20;;
32790;SDS011;19143;59.322;14.502;2023-08-01T07:13:44;2.70;;;1.17;;
32790;SDS011;19143;59.322;14.502;2023-08-01T07:16:10;1.10;;;1.10;;
32790;SDS011;19143;59.322;14.502;2023-08-01T07:18:37;2.67;;;1.30;;
32790;SDS011;19143;59.322;14.502;2023-08-01T07:21:05;2.30;;;1.10;;
32790;SDS011;19143;59.322;14.502;2023-08-01T07:23:33;1.10;;;1.10;;
32790;SDS011;19143;59.322;14.502;2023-08-01T07:28:28;1.60;;;1.27;;
32790;SDS011;19143;59.322;14.502;2023-08-01T07:30:58;3.50;;;1.10;;
32790;SDS011;19143;59.322;14.502;2023-08-01T07:33:32;1.90;;;1.27;;
32790;SDS011;19143;59.322;14.502;2023-08-01T07:35:59;1.93;;;1.10;;
32790;SDS011;19143;59.322;14.502;2023-08-01T07:38:27;5.20;;;1.00;;
32790;SDS011;19143;59.322;14.502;2023-08-01T07:40:53;1.10;;;1.10;;
32790;SDS011;19143;59.322;14.502;2023-08-01T07:43:20;1.00;;;1.00;;
32790;SDS011;19143;59.322;14.502;2023-08-01T07:45:47;0.90;;;0.90;;
32790;SDS011;19143;59.322;14.502;2023-08-01T07:48:15;0.97;;;0.97;;
32790;SDS011;19143;59.322;14.502;2023-08-01T07:50:42;3.20;;;1.20;;
32790;SDS011;19143;59.322;14.502;2023-08-01T07:53:08;0.90;;;0.90;;
32790;SDS011;19143;59.322;14.502;2023-08-01T07:55:37;0.90;;;0.90;;
32790;SDS011;19143;59.322;14.502;2023-08-01T07:58:03;1.20;;;0.90;;
32790;SDS011;19143;59.322;14.502;2023-08-01T08:00:30;1.30;;;1.20;;
32790;SDS011;19143;59.322;14.502;2023-08-01T08:02:56;1.23;;;1.13;;
32790;SDS011;19143;59.322;14.502;2023-08-01T08:05:23;1.97;;;1.00;;
32790;SDS011;19143;59.322;14.502;2023-08-01T08:07:50;2.00;;;1.00;;
32790;SDS011;19143;59.322;14.502;2023-08-01T08:10:16;1.50;;;1.10;;
32790;SDS011;19143;59.322;14.502;2023-08-01T08:12:44;1.07;;;1.07;;
32790;SDS011;19143;59.322;14.502;2023-08-01T08:15:11;4.23;;;1.20;;
32790;SDS011;19143;59.322;14.502;2023-08-01T08:17:41;0.97;;;0.97;;
32790;SDS011;19143;59.322;14.502;2023-08-01T08:22:35;1.00;;;0.83;;
32790;SDS011;19143;59.322;14.502;2023-08-01T08:25:02;1.27;;;0.90;;
32790;SDS011;19143;59.322;14.502;2023-08-01T08:27:28;1.13;;;1.00;;
32790;SDS011;19143;59.322;14.502;2023-08-01T08:29:56;1.00;;;1.00;;
32790;SDS011;19143;59.322;14.502;2023-08-01T08:32:23;1.47;;;1.37;;
32790;SDS011;19143;59.322;14.502;2023-08-01T08:34:50;1.80;;;1.10;;
32790;SDS011;19143;59.322;14.502;2023-08-01T08:37:16;4.73;;;1.20;;
32790;SDS011;19143;59.322;14.502;2023-08-01T08:39:43;1.20;;;1.20;;
32790;SDS011;19143;59.322;14.502;2023-08-01T08:42:09;2.10;;;1.00;;
32790;SDS011;19143;59.322;14.502;2023-08-01T08:44:39;2.50;;;1.10;;
32790;SDS011;19143;59.322;14.502;2023-08-01T08:47:10;1.20;;;1.10;;
32790;SDS011;19143;59.322;14.502;2023-08-01T08:49:37;1.00;;;1.00;;
32790;SDS011;19143;59.322;14.502;2023-08-01T08:52:05;2.57;;;1.23;;
32790;SDS011;19143;59.322;14.502;2023-08-01T08:54:32;4.37;;;1.40;;
32790;SDS011;19143;59.322;14.502;2023-08-01T08:56:58;1.00;;;1.00;;
32790;SDS011;19143;59.322;14.502;2023-08-01T08:59:25;2.07;;;1.10;;
32790;SDS011;19143;59.322;14.502;2023-08-01T09:01:53;1.00;;;1.00;;
32790;SDS011;19143;59.322;14.502;2023-08-01T09:04:21;1.43;;;1.27;;
32790;SDS011;19143;59.322;14.502;2023-08-01T09:06:49;1.50;;;1.13;;
32790;SDS011;19143;59.322;14.502;2023-08-01T09:09:16;2.70;;;1.10;;
32790;SDS011;19143;59.322;14.502;2023-08-01T09:11:44;4.27;;;1.20;;
32790;SDS011;19143;59.322;14.502;2023-08-01T09:14:11;1.10;;;1.10;;
32790;SDS011;19143;59.322;14.502;2023-08-01T09:16:39;1.00;;;1.00;;
32790;SDS011;19143;59.322;14.502;2023-08-01T09:19:06;1.20;;;1.10;;
32790;SDS011;19143;59.322;14.502;2023-08-01T09:21:35;1.10;;;1.10;;
32790;SDS011;19143;59.322;14.502;2023-08-01T09:24:09;2.53;;;1.07;;
32790;SDS011;19143;59.322;14.502;2023-08-01T09:26:36;1.63;;;1.30;;
32790;SDS011;19143;59.322;14.502;2023-08-01T09:29:02;1.07;;;1.07;;
32790;SDS011;19143;59.322;14.502;2023-08-01T09:31:30;2.70;;;1.10;;
32790;SDS011;19143;59.322;14.502;2023-08-01T09:33:56;1.00;;;1.00;;
32790;SDS011;19143;59.322;14.502;2023-08-01T09:36:23;1.77;;;1.00;;
32790;SDS011;19143;59.322;14.502;2023-08-01T09:38:57;1.33;;;1.10;;
32790;SDS011;19143;59.322;14.502;2023-08-01T09:41:24;1.37;;;1.27;;
32790;SDS011;19143;59.322;14.502;2023-08-01T09:43:50;1.33;;;1.17;;
32790;SDS011;19143;59.322;14.502;2023-08-01T09:46:17;1.63;;;1.37;;
32790;SDS011;19143;59.322;14.502;2023-08-01T09:48:44;1.67;;;1.30;;
32790;SDS011;19143;59.322;14.502;2023-08-01T09:51:11;2.00;;;1.23;;
32790;SDS011;19143;59.322;14.502;2023-08-01T09:53:46;1.30;;;1.30;;
32790;SDS011;19143;59.322;14.502;2023-08-01T09:56:15;3.67;;;1.10;;
32790;SDS011;19143;59.322;14.502;2023-08-01T09:58:45;2.07;;;1.00;;
32790;SDS011;19143;59.322;14.502;2023-08-01T10:01:12;1.40;;;1.30;;
32790;SDS011;19143;59.322;14.502;2023-08-01T10:03:39;2.63;;;1.40;;
32790;SDS011;19143;59.322;14.502;2023-08-01T10:06:07;1.70;;;1.60;;
32790;SDS011;19143;59.322;14.502;2023-08-01T10:08:34;1.03;;;1.03;;
32790;SDS011;19143;59.322;14.502;2023-08-01T10:11:04;1.93;;;1.43;;
32790;SDS011;19143;59.322;14.502;2023-08-01T10:13:32;1.50;;;1.40;;
32790;SDS011;19143;59.322;14.502;2023-08-01T10:15:59;3.87;;;1.50;;
32790;SDS011;19143;59.322;14.502;2023-08-01T10:18:26;2.10;;;1.27;;
32790;SDS011;19143;59.322;14.502;2023-08-01T10:23:46;1.10;;;1.10;;
32790;SDS011;19143;59.322;14.502;2023-08-01T10:26:20;3.03;;;1.53;;
32790;SDS011;19143;59.322;14.502;2023-08-01T10:28:52;1.47;;;1.20;;
32790;SDS011;19143;59.322;14.502;2023-08-01T10:31:19;4.20;;;1.27;;
32790;SDS011;19143;59.322;14.502;2023-08-01T10:33:47;3.73;;;1.10;;
32790;SDS011;19143;59.322;14.502;2023-08-01T10:36:14;1.60;;;1.40;;
32790;SDS011;19143;59.322;14.502;2023-08-01T10:38:44;1.23;;;1.23;;
32790;SDS011;19143;59.322;14.502;2023-08-01T10:41:17;2.93;;;1.37;;
32790;SDS011;19143;59.322;14.502;2023-08-01T10:43:44;1.30;;;1.30;;
32790;SDS011;19143;59.322;14.502;2023-08-01T10:46:12;1.37;;;1.27;;
32790;SDS011;19143;59.322;14.502;2023-08-01T10:48:47;1.20;;;1.20;;
32790;SDS011;19143;59.322;14.502;2023-08-01T10:51:13;1.13;;;1.10;;
32790;SDS011;19143;59.322;14.502;2023-08-01T10:53:40;2.33;;;1.30;;
32790;SDS011;19143;59.322;14.502;2023-08-01T10:56:07;5.20;;;1.23;;
32790;SDS011;19143;59.322;14.502;2023-08-01T10:58:34;1.20;;;1.20;;
32790;SDS011;19143;59.322;14.502;2023-08-01T11:01:01;2.87;;;1.27;;
32790;SDS011;19143;59.322;14.502;2023-08-01T11:03:35;1.57;;;1.20;;
32790;SDS011;19143;59.322;14.502;2023-08-01T11:06:02;3.33;;;1.10;;
32790;SDS011;19143;59.322;14.502;2023-08-01T11:08:33;1.30;;;1.20;;
32790;SDS011;19143;59.322;14.502;2023-08-01T11:11:00;1.20;;;1.20;;
32790;SDS011;19143;59.322;14.502;2023-08-01T11:13:27;1.07;;;1.07;;
32790;SDS011;19143;59.322;14.502;2023-08-01T11:15:53;2.57;;;1.33;;
32790;SDS011;19143;59.322;14.502;2023-08-01T11:18:21;1.37;;;1.20;;
32790;SDS011;19143;59.322;14.502;2023-08-01T11:20:49;1.20;;;1.20;;
32790;SDS011;19143;59.322;14.502;2023-08-01T11:23:16;1.43;;;1.33;;
32790;SDS011;19143;59.322;14.502;2023-08-01T11:25:43;1.13;;;1.10;;
32790;SDS011;19143;59.322;14.502;2023-08-01T11:28:11;1.40;;;1.30;;
32790;SDS011;19143;59.322;14.502;2023-08-01T11:30:38;2.10;;;1.30;;
32790;SDS011;19143;59.322;14.502;2023-08-01T11:33:13;3.00;;;1.27;;
32790;SDS011;19143;59.322;14.502;2023-08-01T11:35:39;2.37;;;1.30;;
32790;SDS011;19143;59.322;14.502;2023-08-01T11:38:08;1.40;;;1.30;;
32790;SDS011;19143;59.322;14.502;2023-08-01T11:40:34;4.30;;;1.50;;
32790;SDS011;19143;59.322;14.502;2023-08-01T11:43:01;2.30;;;1.53;;
32790;SDS011;19143;59.322;14.502;2023-08-01T11:45:28;1.57;;;1.13;;
32790;SDS011;19143;59.322;14.502;2023-08-01T11:47:55;1.47;;;1.37;;
32790;SDS011;19143;59.322;14.502;2023-08-01T11:50:22;1.50;;;1.20;;
32790;SDS011;19143;59.322;14.502;2023-08-01T11:52:49;1.60;;;1.33;;
32790;SDS011;19143;59.322;14.502;2023-08-01T11:55:22;4.13;;;1.90;;
32790;SDS011;19143;59.322;14.502;2023-08-01T11:57:55;1.97;;;1.47;;
32790;SDS011;19143;59.322;14.502;2023-08-01T12:00:22;2.63;;;1.33;;
32790;SDS011;19143;59.322;14.502;2023-08-01T12:02:49;2.67;;;1.60;;
32790;SDS011;19143;59.322;14.502;2023-08-01T12:05:21;1.30;;;1.30;;
32790;SDS011;19143;59.322;14.502;2023-08-01T12:07:48;1.80;;;1.70;;
32790;SDS011;19143;59.322;14.502;2023-08-01T12:10:14;1.50;;;1.40;;
32790;SDS011;19143;59.322;14.502;2023-08-01T12:12:44;1.63;;;1.53;;
32790;SDS011;19143;59.322;14.502;2023-08-01T12:15:11;3.40;;;1.70;;
32790;SDS011;19143;59.322;14.502;2023-08-01T12:17:38;3.93;;;1.67;;
32790;SDS011;19143;59.322;14.502;2023-08-01T12:20:05;1.73;;;1.60;;
32790;SDS011;19143;59.322;14.502;2023-08-01T12:22:32;1.50;;;1.40;;
32790;SDS011;19143;59.322;14.502;2023-08-01T12:24:59;3.80;;;1.60;;
32790;SDS011;19143;59.322;14.502;2023-08-01T12:27:25;1.40;;;1.30;;
32790;SDS011;19143;59.322;14.502;2023-08-01T12:29:53;2.83;;;1.50;;
32790;SDS011;19143;59.322;14.502;2023-08-01T12:32:20;2.37;;;1.50;;
32790;SDS011;19143;59.322;14.502;2023-08-01T12:34:46;1.73;;;1.60;;
32790;SDS011;19143;59.322;14.502;2023-08-01T12:37:13;1.60;;;1.50;;
32790;SDS011;19143;59.322;14.502;2023-08-01T12:39:40;1.70;;;1.60;;
32790;SDS011;19143;59.322;14.502;2023-08-01T12:42:06;1.60;;;1.50;;
32790;SDS011;19143;59.322;14.502;2023-08-01T12:44:33;1.37;;;1.37;;
32790;SDS011;19143;59.322;14.502;2023-08-01T12:47:02;1.87;;;1.53;;
32790;SDS011;19143;59.322;14.502;2023-08-01T12:49:29;2.40;;;1.90;;
32790;SDS011;19143;59.322;14.502;2023-08-01T12:51:55;5.57;;;2.23;;
32790;SDS011;19143;59.322;14.502;2023-08-01T12:54:22;3.80;;;1.60;;
32790;SDS011;19143;59.322;14.502;2023-08-01T12:56:55;1.63;;;1.53;;
32790;SDS011;19143;59.322;14.502;2023-08-01T12:59:22;1.73;;;1.63;;
32790;SDS011;19143;59.322;14.502;2023-08-01T13:01:49;4.10;;;1.30;;
32790;SDS011;19143;59.322;14.502;2023-08-01T13:04:17;1.33;;;1.30;;
32790;SDS011;19143;59.322;14.502;2023-08-01T13:06:43;1.40;;;1.40;;
32790;SDS011;19143;59.322;14.502;2023-08-01T13:09:21;1.70;;;1.60;;
32790;SDS011;19143;59.322;14.502;2023-08-01T13:11:47;2.93;;;1.60;;
32790;SDS011;19143;59.322;14.502;2023-08-01T13:14:14;3.10;;;1.60;;
32790;SDS011;19143;59.322;14.502;2023-08-01T13:16:41;1.70;;;1.60;;
32790;SDS011;19143;59.322;14.502;2023-08-01T13:19:12;1.90;;;1.80;;
32790;SDS011;19143;59.322;14.502;2023-08-01T13:21:46;2.03;;;1.80;;
32790;SDS011;19143;59.322;14.502;2023-08-01T13:24:12;1.67;;;1.67;;
32790;SDS011;19143;59.322;14.502;2023-08-01T13:26:39;2.47;;;1.70;;
32790;SDS011;19143;59.322;14.502;2023-08-01T13:29:06;2.00;;;1.90;;
32790;SDS011;19143;59.322;14.502;2023-08-01T13:32:07;1.63;;;1.52;;
32790;SDS011;19143;59.322;14.502;2023-08-01T13:34:41;2.20;;;1.83;;
32790;SDS011;19143;59.322;14.502;2023-08-01T13:37:08;2.00;;;1.90;;
32790;SDS011;19143;59.322;14.502;2023-08-01T13:39:35;2.80;;;1.80;;
32790;SDS011;19143;59.322;14.502;2023-08-01T13:42:02;1.70;;;1.70;;
32790;SDS011;19143;59.322;14.502;2023-08-01T13:44:28;1.83;;;1.73;;
32790;SDS011;19143;59.322;14.502;2023-08-01T13:46:55;2.97;;;1.80;;
32790;SDS011;19143;59.322;14.502;2023-08-01T13:49:23;1.60;;;1.60;;
32790;SDS011;19143;59.322;14.502;2023-08-01T13:51:50;1.77;;;1.67;;
32790;SDS011;19143;59.322;14.502;2023-08-01T13:54:16;2.03;;;1.90;;
32790;SDS011;19143;59.322;14.502;2023-08-01T13:56:49;1.80;;;1.70;;
32790;SDS011;19143;59.322;14.502;2023-08-01T13:59:15;1.57;;;1.50;;
32790;SDS011;19143;59.322;14.502;2023-08-01T14:01:42;1.70;;;1.60;;
32790;SDS011;19143;59.322;14.502;2023-08-01T14:04:09;1.83;;;1.73;;
32790;SDS011;19143;59.322;14.502;2023-08-01T14:06:37;1.43;;;1.40;;
32790;SDS011;19143;59.322;14.502;2023-08-01T14:09:06;1.70;;;1.60;;
32790;SDS011;19143;59.322;14.502;2023-08-01T14:11:34;1.80;;;1.70;;
32790;SDS011;19143;59.322;14.502;2023-08-01T14:14:00;1.63;;;1.57;;
32790;SDS011;19143;59.322;14.502;2023-08-01T14:16:27;2.77;;;1.70;;
32790;SDS011;19143;59.322;14.502;2023-08-01T14:18:54;1.50;;;1.50;;
32790;SDS011;19143;59.322;14.502;2023-08-01T14:21:20;1.43;;;1.40;;
32790;SDS011;19143;59.322;14.502;2023-08-01T14:23:49;1.50;;;1.40;;
32790;SDS011;19143;59.322;14.502;2023-08-01T14:26:15;1.90;;;1.80;;
32790;SDS011;19143;59.322;14.502;2023-08-01T14:28:42;1.73;;;1.70;;
32790;SDS011;19143;59.322;14.502;2023-08-01T14:31:09;1.60;;;1.60;;
32790;SDS011;19143;59.322;14.502;2023-08-01T14:33:35;3.60;;;2.00;;
32790;SDS011;19143;59.322;14.502;2023-08-01T14:36:02;1.70;;;1.60;;
32790;SDS011;19143;59.322;14.502;2023-08-01T14:38:28;3.77;;;1.60;;
32790;SDS011;19143;59.322;14.502;2023-08-01T14:40:57;1.63;;;1.53;;
32790;SDS011;19143;59.322;14.502;2023-08-01T14:43:25;2.10;;;1.60;;